sensor_id;sensor_type;location;lat;lon;timestamp;P1;durP1;ratioP1;P2;durP2;ratioP2
8572;SDS011;4324;42.012;24.872;2023-04-03T00:00:07;1.53;;;1.43;;
8572;SDS011;4324;42.012;24.872;2023-04-03T00:02:35;1.90;;;1.80;;
8572;SDS011;4324;42.012;24.872;2023-04-03T00:05:02;1.70;;;1.60;;
8572;SDS011;4324;42.012;24.872;2023-04-03T00:07:29;2.37;;;1.30;;
8572;SDS011;4324;42.012;24.872;2023-04-03T00:09:56;1.60;;;1.50;;
8572;SDS011;4324;42.012;24.872;2023-04-03T00:12:23;1.90;;;1.60;;
8572;SDS011;4324;42.012;24.872;2023-04-03T00:14:51;1.57;;;1.30;;
8572;SDS011;4324;42.012;24.872;2023-04-03T00:17:18;2.90;;;1.67;;
8572;SDS011;4324;42.012;24.872;2023-04-03T00:19:45;1.63;;;1.53;;
8572;SDS011;4324;42.012;24.872;2023-04-03T00:22:12;2.97;;;1.47;;
8572;SDS011;4324;42.012;24.872;2023-04-03T00:24:39;1.80;;;1.70;;
8572;SDS011;4324;42.012;24.872;2023-04-03T00:27:06;3.53;;;1.87;;
8572;SDS011;4324;42.012;24.872;2023-04-03T00:29:32;1.90;;;1.70;;
8572;SDS011;4324;42.012;24.872;2023-04-03T00:32:01;2.50;;;1.87;;
8572;SDS011;4324;42.012;24.872;2023-04-03T00:34:28;1.73;;;1.50;;
8572;SDS011;4324;42.012;24.872;2023-04-03T00:36:55;2.27;;;1.83;;
8572;SDS011;4324;42.012;24.872;2023-04-03T00:39:22;1.83;;;1.70;;
8572;SDS011;4324;42.012;24.872;2023-04-03T00:41:48;2.77;;;1.83;;
8572;SDS011;4324;42.012;24.872;2023-04-03T00:44:19;1.93;;;1.73;;
8572;SDS011;4324;42.012;24.872;2023-04-03T00:46:47;1.63;;;1.53;;
8572;SDS011;4324;42.012;24.872;2023-04-03T00:49:16;2.13;;;1.93;;
8572;SDS011;4324;42.012;24.872;2023-04-03T00:51:43;1.67;;;1.57;;
8572;SDS011;4324;42.012;24.872;2023-04-03T00:54:10;1.57;;;1.47;;
8572;SDS011;4324;42.012;24.872;2023-04-03T00:56:37;2.47;;;1.97;;
8572;SDS011;4324;42.012;24.872;2023-04-03T00:59:06;2.13;;;1.57;;
8572;SDS011;4324;42.012;24.872;2023-04-03T01:01:37;2.50;;;2.03;;
8572;SDS011;4324;42.012;24.872;2023-04-03T01:04:04;3.10;;;1.43;;
8572;SDS011;4324;42.012;24.872;2023-04-03T01:06:34;2.57;;;1.90;;
8572;SDS011;4324;42.012;24.872;2023-04-03T01:09:02;1.50;;;1.40;;
8572;SDS011;4324;42.012;24.872;2023-04-03T01:11:30;1.63;;;1.53;;
8572;SDS011;4324;42.012;24.872;2023-04-03T01:13:57;1.40;;;1.30;;
8572;SDS011;4324;42.012;24.872;2023-04-03T01:16:24;1.50;;;1.40;;
8572;SDS011;4324;42.012;24.872;2023-04-03T01:18:51;1.70;;;1.60;;
8572;SDS011;4324;42.012;24.872;2023-04-03T01:24:18;1.50;;;1.40;;
8572;SDS011;4324;42.012;24.872;2023-04-03T01:26:50;2.27;;;2.07;;
8572;SDS011;4324;42.012;24.872;2023-04-03T01:29:17;1.40;;;1.30;;
8572;SDS011;4324;42.012;24.872;2023-04-03T01:31:47;1.90;;;1.47;;
8572;SDS011;4324;42.012;24.872;2023-04-03T01:34:15;3.40;;;1.80;;
8572;SDS011;4324;42.012;24.872;2023-04-03T01:36:42;3.50;;;1.53;;
8572;SDS011;4324;42.012;24.872;2023-04-03T01:39:10;1.30;;;1.20;;
8572;SDS011;4324;42.012;24.872;2023-04-03T01:41:37;1.70;;;1.33;;
8572;SDS011;4324;42.012;24.872;2023-04-03T01:44:04;2.40;;;2.00;;
8572;SDS011;4324;42.012;24.872;2023-04-03T01:46:32;1.57;;;1.47;;
8572;SDS011;4324;42.012;24.872;2023-04-03T01:49:00;8.87;;;1.93;;
8572;SDS011;4324;42.012;24.872;2023-04-03T01:51:27;1.50;;;1.37;;
8572;SDS011;4324;42.012;24.872;2023-04-03T01:53:54;2.33;;;1.53;;
8572;SDS011;4324;42.012;24.872;2023-04-03T01:56:21;1.60;;;1.50;;
8572;SDS011;4324;42.012;24.872;2023-04-03T01:58:48;1.67;;;1.57;;
8572;SDS011;4324;42.012;24.872;2023-04-03T02:01:15;1.40;;;1.30;;
8572;SDS011;4324;42.012;24.872;2023-04-03T02:03:42;1.70;;;1.60;;
8572;SDS011;4324;42.012;24.872;2023-04-03T02:06:10;2.57;;;2.20;;
8572;SDS011;4324;42.012;24.872;2023-04-03T02:08:37;2.10;;;1.90;;
8572;SDS011;4324;42.012;24.872;2023-04-03T02:11:05;2.30;;;1.40;;
8572;SDS011;4324;42.012;24.872;2023-04-03T02:13:32;1.80;;;1.30;;
8572;SDS011;4324;42.012;24.872;2023-04-03T02:15:59;2.00;;;1.50;;
8572;SDS011;4324;42.012;24.872;2023-04-03T02:18:26;2.93;;;1.40;;
8572;SDS011;4324;42.012;24.872;2023-04-03T02:20:53;1.30;;;1.20;;
8572;SDS011;4324;42.012;24.872;2023-04-03T02:23:21;2.83;;;1.40;;
8572;SDS011;4324;42.012;24.872;2023-04-03T02:25:48;1.77;;;1.60;;
8572;SDS011;4324;42.012;24.872;2023-04-03T02:28:15;2.20;;;1.53;;
8572;SDS011;4324;42.012;24.872;2023-04-03T02:30:42;1.43;;;1.30;;
8572;SDS011;4324;42.012;24.872;2023-04-03T02:33:09;2.23;;;1.70;;
8572;SDS011;4324;42.012;24.872;2023-04-03T02:35:36;2.67;;;1.60;;
8572;SDS011;4324;42.012;24.872;2023-04-03T02:38:03;2.30;;;1.50;;
8572;SDS011;4324;42.012;24.872;2023-04-03T02:40:31;1.57;;;1.47;;
8572;SDS011;4324;42.012;24.872;2023-04-03T02:42:58;1.70;;;1.40;;
8572;SDS011;4324;42.012;24.872;2023-04-03T02:45:25;1.27;;;1.17;;
8572;SDS011;4324;42.012;24.872;2023-04-03T02:47:52;1.70;;;1.30;;
8572;SDS011;4324;42.012;24.872;2023-04-03T02:50:18;2.00;;;1.50;;
8572;SDS011;4324;42.012;24.872;2023-04-03T02:52:45;1.47;;;1.30;;
8572;SDS011;4324;42.012;24.872;2023-04-03T02:55:15;1.60;;;1.30;;
8572;SDS011;4324;42.012;24.872;2023-04-03T02:57:44;1.83;;;1.50;;
8572;SDS011;4324;42.012;24.872;2023-04-03T03:00:11;1.90;;;1.40;;
8572;SDS011;4324;42.012;24.872;2023-04-03T03:02:38;1.90;;;1.57;;
8572;SDS011;4324;42.012;24.872;2023-04-03T03:05:05;3.00;;;1.30;;
8572;SDS011;4324;42.012;24.872;2023-04-03T03:07:32;1.83;;;1.67;;
8572;SDS011;4324;42.012;24.872;2023-04-03T03:09:59;1.43;;;1.33;;
8572;SDS011;4324;42.012;24.872;2023-04-03T03:12:26;1.73;;;1.50;;
8572;SDS011;4324;42.012;24.872;2023-04-03T03:14:54;2.90;;;1.57;;
8572;SDS011;4324;42.012;24.872;2023-04-03T03:17:21;5.47;;;1.47;;
8572;SDS011;4324;42.012;24.872;2023-04-03T03:19:48;2.93;;;1.70;;
8572;SDS011;4324;42.012;24.872;2023-04-03T03:22:15;1.87;;;1.50;;
8572;SDS011;4324;42.012;24.872;2023-04-03T03:24:43;1.63;;;1.53;;
8572;SDS011;4324;42.012;24.872;2023-04-03T03:27:10;1.60;;;1.50;;
8572;SDS011;4324;42.012;24.872;2023-04-03T03:29:37;1.70;;;1.60;;
8572;SDS011;4324;42.012;24.872;2023-04-03T03:32:05;1.73;;;1.57;;
8572;SDS011;4324;42.012;24.872;2023-04-03T03:34:32;3.87;;;1.60;;
8572;SDS011;4324;42.012;24.872;2023-04-03T03:36:59;1.50;;;1.40;;
8572;SDS011;4324;42.012;24.872;2023-04-03T03:39:26;3.03;;;1.60;;
8572;SDS011;4324;42.012;24.872;2023-04-03T03:41:53;2.07;;;1.87;;
8572;SDS011;4324;42.012;24.872;2023-04-03T03:44:20;1.77;;;1.47;;
8572;SDS011;4324;42.012;24.872;2023-04-03T03:46:47;2.10;;;1.67;;
8572;SDS011;4324;42.012;24.872;2023-04-03T03:49:15;2.37;;;1.50;;
8572;SDS011;4324;42.012;24.872;2023-04-03T03:51:42;1.87;;;1.40;;
8572;SDS011;4324;42.012;24.872;2023-04-03T03:54:09;2.50;;;1.80;;
8572;SDS011;4324;42.012;24.872;2023-04-03T03:56:36;2.40;;;1.60;;
8572;SDS011;4324;42.012;24.872;2023-04-03T03:59:03;2.03;;;1.33;;
8572;SDS011;4324;42.012;24.872;2023-04-03T04:01:30;4.53;;;2.10;;
8572;SDS011;4324;42.012;24.872;2023-04-03T04:03:57;2.03;;;1.73;;
8572;SDS011;4324;42.012;24.872;2023-04-03T04:06:25;1.80;;;1.70;;
8572;SDS011;4324;42.012;24.872;2023-04-03T04:08:52;2.63;;;1.50;;
8572;SDS011;4324;42.012;24.872;2023-04-03T04:11:19;1.60;;;1.50;;
8572;SDS011;4324;42.012;24.872;2023-04-03T04:13:47;5.77;;;3.17;;
8572;SDS011;4324;42.012;24.872;2023-04-03T04:16:14;3.47;;;2.07;;
8572;SDS011;4324;42.012;24.872;2023-04-03T04:18:41;1.50;;;1.40;;
8572;SDS011;4324;42.012;24.872;2023-04-03T04:21:07;1.40;;;1.30;;
8572;SDS011;4324;42.012;24.872;2023-04-03T04:23:36;1.70;;;1.60;;
8572;SDS011;4324;42.012;24.872;2023-04-03T04:26:02;1.83;;;1.70;;
8572;SDS011;4324;42.012;24.872;2023-04-03T04:28:29;1.50;;;1.40;;
8572;SDS011;4324;42.012;24.872;2023-04-03T04:30:56;2.53;;;1.47;;
8572;SDS011;4324;42.012;24.872;2023-04-03T04:33:23;2.30;;;2.10;;
8572;SDS011;4324;42.012;24.872;2023-04-03T04:35:50;3.67;;;2.40;;
8572;SDS011;4324;42.012;24.872;2023-04-03T04:38:17;3.23;;;2.20;;
8572;SDS011;4324;42.012;24.872;2023-04-03T04:40:46;5.27;;;3.93;;
8572;SDS011;4324;42.012;24.872;2023-04-03T04:43:13;1.90;;;1.43;;
8572;SDS011;4324;42.012;24.872;2023-04-03T04:45:40;2.97;;;1.80;;
8572;SDS011;4324;42.012;24.872;2023-04-03T04:48:07;2.03;;;1.67;;
8572;SDS011;4324;42.012;24.872;2023-04-03T04:50:34;2.80;;;1.70;;
8572;SDS011;4324;42.012;24.872;2023-04-03T04:53:01;2.33;;;1.63;;
8572;SDS011;4324;42.012;24.872;2023-04-03T04:55:29;1.70;;;1.50;;
8572;SDS011;4324;42.012;24.872;2023-04-03T04:57:57;1.60;;;1.50;;
8572;SDS011;4324;42.012;24.872;2023-04-03T05:00:24;2.40;;;1.40;;
8572;SDS011;4324;42.012;24.872;2023-04-03T05:02:52;2.83;;;1.70;;
8572;SDS011;4324;42.012;24.872;2023-04-03T05:05:18;4.07;;;1.70;;
8572;SDS011;4324;42.012;24.872;2023-04-03T05:07:45;2.10;;;1.90;;
8572;SDS011;4324;42.012;24.872;2023-04-03T05:10:12;2.07;;;1.70;;
8572;SDS011;4324;42.012;24.872;2023-04-03T05:12:39;3.30;;;2.50;;
8572;SDS011;4324;42.012;24.872;2023-04-03T05:15:08;3.67;;;2.50;;
8572;SDS011;4324;42.012;24.872;2023-04-03T05:17:36;2.73;;;1.90;;
8572;SDS011;4324;42.012;24.872;2023-04-03T05:20:03;1.83;;;1.60;;
8572;SDS011;4324;42.012;24.872;2023-04-03T05:22:31;1.57;;;1.43;;
8572;SDS011;4324;42.012;24.872;2023-04-03T05:24:58;2.40;;;1.57;;
8572;SDS011;4324;42.012;24.872;2023-04-03T05:27:25;1.83;;;1.60;;
8572;SDS011;4324;42.012;24.872;2023-04-03T05:29:53;3.17;;;1.33;;
8572;SDS011;4324;42.012;24.872;2023-04-03T05:32:22;1.77;;;1.67;;
8572;SDS011;4324;42.012;24.872;2023-04-03T05:34:50;2.43;;;2.23;;
8572;SDS011;4324;42.012;24.872;2023-04-03T05:37:17;4.37;;;2.60;;
8572;SDS011;4324;42.012;24.872;2023-04-03T05:39:44;4.07;;;1.93;;
8572;SDS011;4324;42.012;24.872;2023-04-03T05:42:10;3.10;;;2.20;;
8572;SDS011;4324;42.012;24.872;2023-04-03T05:44:38;2.30;;;2.10;;
8572;SDS011;4324;42.012;24.872;2023-04-03T05:47:06;2.97;;;1.83;;
8572;SDS011;4324;42.012;24.872;2023-04-03T05:49:34;3.57;;;2.30;;
8572;SDS011;4324;42.012;24.872;2023-04-03T05:52:01;5.10;;;3.27;;
8572;SDS011;4324;42.012;24.872;2023-04-03T05:54:29;4.73;;;3.20;;
8572;SDS011;4324;42.012;24.872;2023-04-03T05:56:56;2.97;;;2.40;;
8572;SDS011;4324;42.012;24.872;2023-04-03T05:59:23;4.93;;;2.93;;
8572;SDS011;4324;42.012;24.872;2023-04-03T06:01:50;3.50;;;2.80;;
8572;SDS011;4324;42.012;24.872;2023-04-03T06:04:17;5.47;;;4.43;;
8572;SDS011;4324;42.012;24.872;2023-04-03T06:06:47;3.53;;;3.23;;
8572;SDS011;4324;42.012;24.872;2023-04-03T06:09:17;5.30;;;4.80;;
8572;SDS011;4324;42.012;24.872;2023-04-03T06:11:44;4.50;;;3.60;;
8572;SDS011;4324;42.012;24.872;2023-04-03T06:14:11;2.67;;;2.13;;
8572;SDS011;4324;42.012;24.872;2023-04-03T06:16:39;2.40;;;2.20;;
8572;SDS011;4324;42.012;24.872;2023-04-03T06:19:06;3.70;;;2.77;;
8572;SDS011;4324;42.012;24.872;2023-04-03T06:21:33;3.40;;;2.20;;
8572;SDS011;4324;42.012;24.872;2023-04-03T06:24:02;3.20;;;2.70;;
8572;SDS011;4324;42.012;24.872;2023-04-03T06:26:29;4.07;;;2.30;;
8572;SDS011;4324;42.012;24.872;2023-04-03T06:28:56;3.20;;;2.40;;
8572;SDS011;4324;42.012;24.872;2023-04-03T06:31:26;4.00;;;3.23;;
8572;SDS011;4324;42.012;24.872;2023-04-03T06:33:53;3.27;;;2.43;;
8572;SDS011;4324;42.012;24.872;2023-04-03T06:36:20;2.47;;;2.00;;
8572;SDS011;4324;42.012;24.872;2023-04-03T06:38:47;3.97;;;2.13;;
8572;SDS011;4324;42.012;24.872;2023-04-03T06:41:16;4.53;;;3.83;;
8572;SDS011;4324;42.012;24.872;2023-04-03T06:43:43;3.00;;;2.60;;
8572;SDS011;4324;42.012;24.872;2023-04-03T06:46:12;4.40;;;3.07;;
8572;SDS011;4324;42.012;24.872;2023-04-03T06:48:41;4.47;;;3.40;;
8572;SDS011;4324;42.012;24.872;2023-04-03T06:51:12;5.03;;;3.90;;
8572;SDS011;4324;42.012;24.872;2023-04-03T06:53:43;11.40;;;7.63;;
8572;SDS011;4324;42.012;24.872;2023-04-03T06:56:11;4.87;;;4.43;;
8572;SDS011;4324;42.012;24.872;2023-04-03T06:58:39;7.40;;;4.87;;
8572;SDS011;4324;42.012;24.872;2023-04-03T07:01:06;7.17;;;5.20;;
8572;SDS011;4324;42.012;24.872;2023-04-03T07:03:34;6.70;;;4.60;;
8572;SDS011;4324;42.012;24.872;2023-04-03T07:06:01;5.87;;;5.27;;
8572;SDS011;4324;42.012;24.872;2023-04-03T07:08:29;9.60;;;5.60;;
8572;SDS011;4324;42.012;24.872;2023-04-03T07:10:56;12.17;;;6.00;;
8572;SDS011;4324;42.012;24.872;2023-04-03T07:13:23;11.70;;;4.80;;
8572;SDS011;4324;42.012;24.872;2023-04-03T07:15:51;15.83;;;6.37;;
8572;SDS011;4324;42.012;24.872;2023-04-03T07:18:19;9.23;;;5.70;;
8572;SDS011;4324;42.012;24.872;2023-04-03T07:20:46;8.20;;;5.70;;
8572;SDS011;4324;42.012;24.872;2023-04-03T07:23:13;12.03;;;4.70;;
8572;SDS011;4324;42.012;24.872;2023-04-03T07:25:42;6.27;;;3.80;;
8572;SDS011;4324;42.012;24.872;2023-04-03T07:28:09;8.13;;;4.77;;
8572;SDS011;4324;42.012;24.872;2023-04-03T07:30:41;4.53;;;3.43;;
8572;SDS011;4324;42.012;24.872;2023-04-03T07:33:10;5.20;;;4.23;;
8572;SDS011;4324;42.012;24.872;2023-04-03T07:35:38;3.67;;;3.10;;
8572;SDS011;4324;42.012;24.872;2023-04-03T07:38:05;4.03;;;3.57;;
8572;SDS011;4324;42.012;24.872;2023-04-03T07:40:32;5.33;;;3.20;;
8572;SDS011;4324;42.012;24.872;2023-04-03T07:43:00;4.50;;;3.37;;
8572;SDS011;4324;42.012;24.872;2023-04-03T07:45:27;4.10;;;3.70;;
8572;SDS011;4324;42.012;24.872;2023-04-03T07:47:55;9.03;;;5.63;;
8572;SDS011;4324;42.012;24.872;2023-04-03T07:50:23;13.43;;;9.33;;
8572;SDS011;4324;42.012;24.872;2023-04-03T07:52:50;9.47;;;7.40;;
8572;SDS011;4324;42.012;24.872;2023-04-03T07:55:19;9.13;;;6.30;;
8572;SDS011;4324;42.012;24.872;2023-04-03T07:57:46;9.57;;;5.97;;
8572;SDS011;4324;42.012;24.872;2023-04-03T08:00:13;7.67;;;5.40;;
8572;SDS011;4324;42.012;24.872;2023-04-03T08:02:42;6.40;;;4.80;;
8572;SDS011;4324;42.012;24.872;2023-04-03T08:05:09;10.83;;;5.23;;
8572;SDS011;4324;42.012;24.872;2023-04-03T08:07:38;8.27;;;5.33;;
8572;SDS011;4324;42.012;24.872;2023-04-03T08:10:05;7.20;;;4.80;;
8572;SDS011;4324;42.012;24.872;2023-04-03T08:12:33;8.50;;;4.80;;
8572;SDS011;4324;42.012;24.872;2023-04-03T08:15:00;9.00;;;6.50;;
8572;SDS011;4324;42.012;24.872;2023-04-03T08:17:27;15.73;;;10.57;;
8572;SDS011;4324;42.012;24.872;2023-04-03T08:19:54;9.87;;;8.17;;
8572;SDS011;4324;42.012;24.872;2023-04-03T08:22:21;12.17;;;6.20;;
8572;SDS011;4324;42.012;24.872;2023-04-03T08:24:49;7.73;;;6.93;;
8572;SDS011;4324;42.012;24.872;2023-04-03T08:27:16;8.63;;;6.13;;
8572;SDS011;4324;42.012;24.872;2023-04-03T08:29:43;7.20;;;6.33;;
8572;SDS011;4324;42.012;24.872;2023-04-03T08:32:10;30.67;;;26.00;;
8572;SDS011;4324;42.012;24.872;2023-04-03T08:34:37;27.17;;;20.97;;
8572;SDS011;4324;42.012;24.872;2023-04-03T08:37:04;11.53;;;8.23;;
8572;SDS011;4324;42.012;24.872;2023-04-03T08:39:31;13.40;;;11.90;;
8572;SDS011;4324;42.012;24.872;2023-04-03T08:42:01;20.23;;;15.60;;
8572;SDS011;4324;42.012;24.872;2023-04-03T08:44:36;15.33;;;13.77;;
8572;SDS011;4324;42.012;24.872;2023-04-03T08:47:12;8.57;;;7.53;;
8572;SDS011;4324;42.012;24.872;2023-04-03T08:49:50;8.20;;;6.93;;
8572;SDS011;4324;42.012;24.872;2023-04-03T08:52:19;7.00;;;5.70;;
8572;SDS011;4324;42.012;24.872;2023-04-03T08:54:52;11.10;;;9.77;;
8572;SDS011;4324;42.012;24.872;2023-04-03T08:57:26;11.23;;;7.17;;
8572;SDS011;4324;42.012;24.872;2023-04-03T08:59:57;6.93;;;5.60;;
8572;SDS011;4324;42.012;24.872;2023-04-03T09:02:29;7.53;;;6.00;;
8572;SDS011;4324;42.012;24.872;2023-04-03T09:05:01;7.03;;;6.13;;
8572;SDS011;4324;42.012;24.872;2023-04-03T09:07:36;9.10;;;7.43;;
8572;SDS011;4324;42.012;24.872;2023-04-03T09:10:08;8.43;;;7.63;;
8572;SDS011;4324;42.012;24.872;2023-04-03T09:12:40;14.00;;;11.57;;
8572;SDS011;4324;42.012;24.872;2023-04-03T09:15:15;7.27;;;6.57;;
8572;SDS011;4324;42.012;24.872;2023-04-03T09:17:53;8.13;;;7.33;;
8572;SDS011;4324;42.012;24.872;2023-04-03T09:20:27;7.63;;;5.43;;
8572;SDS011;4324;42.012;24.872;2023-04-03T09:23:08;6.60;;;5.90;;
8572;SDS011;4324;42.012;24.872;2023-04-03T09:25:47;9.80;;;7.80;;
8572;SDS011;4324;42.012;24.872;2023-04-03T09:28:16;12.00;;;6.30;;
8572;SDS011;4324;42.012;24.872;2023-04-03T09:30:43;7.47;;;6.53;;
8572;SDS011;4324;42.012;24.872;2023-04-03T09:33:10;9.77;;;8.27;;
8572;SDS011;4324;42.012;24.872;2023-04-03T09:35:40;11.60;;;9.33;;
8572;SDS011;4324;42.012;24.872;2023-04-03T09:38:14;6.47;;;5.80;;
8572;SDS011;4324;42.012;24.872;2023-04-03T09:40:45;7.47;;;6.50;;
8572;SDS011;4324;42.012;24.872;2023-04-03T09:48:55;7.37;;;5.50;;
8572;SDS011;4324;42.012;24.872;2023-04-03T09:51:25;8.47;;;6.60;;
8572;SDS011;4324;42.012;24.872;2023-04-03T09:53:54;6.40;;;5.40;;
8572;SDS011;4324;42.012;24.872;2023-04-03T09:56:23;4.90;;;4.40;;
8572;SDS011;4324;42.012;24.872;2023-04-03T09:59:05;5.97;;;5.20;;
8572;SDS011;4324;42.012;24.872;2023-04-03T10:01:35;4.83;;;4.37;;
8572;SDS011;4324;42.012;24.872;2023-04-03T10:04:05;8.30;;;6.20;;
8572;SDS011;4324;42.012;24.872;2023-04-03T10:06:34;7.60;;;6.80;;
8572;SDS011;4324;42.012;24.872;2023-04-03T10:09:10;14.23;;;11.33;;
8572;SDS011;4324;42.012;24.872;2023-04-03T10:11:50;35.33;;;28.87;;
8572;SDS011;4324;42.012;24.872;2023-04-03T10:14:26;16.40;;;14.70;;
8572;SDS011;4324;42.012;24.872;2023-04-03T10:16:54;10.27;;;8.03;;
8572;SDS011;4324;42.012;24.872;2023-04-03T10:19:36;9.37;;;8.47;;
8572;SDS011;4324;42.012;24.872;2023-04-03T10:22:13;11.57;;;8.63;;
8572;SDS011;4324;42.012;24.872;2023-04-03T10:24:48;8.43;;;5.80;;
8572;SDS011;4324;42.012;24.872;2023-04-03T10:27:22;15.00;;;8.83;;
8572;SDS011;4324;42.012;24.872;2023-04-03T10:29:59;18.63;;;10.23;;
8572;SDS011;4324;42.012;24.872;2023-04-03T10:32:45;11.77;;;7.80;;
8572;SDS011;4324;42.012;24.872;2023-04-03T10:35:22;10.20;;;6.70;;
8572;SDS011;4324;42.012;24.872;2023-04-03T10:38:04;8.27;;;6.80;;
8572;SDS011;4324;42.012;24.872;2023-04-03T10:40:41;4.40;;;3.90;;
8572;SDS011;4324;42.012;24.872;2023-04-03T10:43:16;5.17;;;3.40;;
8572;SDS011;4324;42.012;24.872;2023-04-03T10:45:51;5.70;;;4.90;;
8572;SDS011;4324;42.012;24.872;2023-04-03T10:48:27;5.40;;;4.43;;
8572;SDS011;4324;42.012;24.872;2023-04-03T10:51:10;6.30;;;5.70;;
8572;SDS011;4324;42.012;24.872;2023-04-03T10:53:45;6.00;;;5.40;;
8572;SDS011;4324;42.012;24.872;2023-04-03T10:56:22;5.67;;;3.80;;
8572;SDS011;4324;42.012;24.872;2023-04-03T10:58:57;5.67;;;3.77;;
8572;SDS011;4324;42.012;24.872;2023-04-03T11:01:30;7.00;;;4.93;;
8572;SDS011;4324;42.012;24.872;2023-04-03T11:04:00;9.37;;;5.73;;
8572;SDS011;4324;42.012;24.872;2023-04-03T11:06:31;6.87;;;4.80;;
8572;SDS011;4324;42.012;24.872;2023-04-03T11:09:03;10.57;;;5.43;;
8572;SDS011;4324;42.012;24.872;2023-04-03T11:11:34;9.00;;;6.83;;
8572;SDS011;4324;42.012;24.872;2023-04-03T11:14:05;6.17;;;3.80;;
8572;SDS011;4324;42.012;24.872;2023-04-03T11:16:43;10.87;;;7.43;;
8572;SDS011;4324;42.012;24.872;2023-04-03T11:19:15;15.63;;;10.10;;
8572;SDS011;4324;42.012;24.872;2023-04-03T11:21:50;10.67;;;9.57;;
8572;SDS011;4324;42.012;24.872;2023-04-03T11:24:22;6.63;;;5.90;;
8572;SDS011;4324;42.012;24.872;2023-04-03T11:26:51;8.37;;;7.43;;
8572;SDS011;4324;42.012;24.872;2023-04-03T11:29:21;17.23;;;10.60;;
8572;SDS011;4324;42.012;24.872;2023-04-03T11:32:01;35.53;;;18.17;;
8572;SDS011;4324;42.012;24.872;2023-04-03T11:34:36;10.73;;;8.53;;
8572;SDS011;4324;42.012;24.872;2023-04-03T11:37:11;15.57;;;11.53;;
8572;SDS011;4324;42.012;24.872;2023-04-03T11:39:46;21.60;;;15.60;;
8572;SDS011;4324;42.012;24.872;2023-04-03T11:42:20;13.27;;;10.40;;
8572;SDS011;4324;42.012;24.872;2023-04-03T11:47:44;25.13;;;15.40;;
8572;SDS011;4324;42.012;24.872;2023-04-03T11:53:25;9.87;;;8.63;;
8572;SDS011;4324;42.012;24.872;2023-04-03T12:01:53;10.53;;;9.07;;
8572;SDS011;4324;42.012;24.872;2023-04-03T12:04:22;9.73;;;8.73;;
8572;SDS011;4324;42.012;24.872;2023-04-03T12:06:59;11.60;;;10.03;;
8572;SDS011;4324;42.012;24.872;2023-04-03T12:09:33;15.00;;;12.43;;
8572;SDS011;4324;42.012;24.872;2023-04-03T12:12:29;13.07;;;11.57;;
8572;SDS011;4324;42.012;24.872;2023-04-03T12:15:18;15.53;;;11.13;;
8572;SDS011;4324;42.012;24.872;2023-04-03T12:17:49;8.63;;;7.17;;
8572;SDS011;4324;42.012;24.872;2023-04-03T12:23:24;7.27;;;6.20;;
8572;SDS011;4324;42.012;24.872;2023-04-03T12:25:59;14.50;;;9.67;;
8572;SDS011;4324;42.012;24.872;2023-04-03T12:28:31;8.80;;;7.73;;
8572;SDS011;4324;42.012;24.872;2023-04-03T12:31:04;11.97;;;9.13;;
8572;SDS011;4324;42.012;24.872;2023-04-03T12:33:36;31.53;;;17.60;;
8572;SDS011;4324;42.012;24.872;2023-04-03T12:36:15;6.90;;;6.20;;
8572;SDS011;4324;42.012;24.872;2023-04-03T12:38:55;6.23;;;5.63;;
8572;SDS011;4324;42.012;24.872;2023-04-03T12:41:31;5.63;;;5.13;;
8572;SDS011;4324;42.012;24.872;2023-04-03T12:44:12;9.30;;;7.90;;
8572;SDS011;4324;42.012;24.872;2023-04-03T12:46:52;9.97;;;7.87;;
8572;SDS011;4324;42.012;24.872;2023-04-03T12:49:30;8.53;;;6.73;;
8572;SDS011;4324;42.012;24.872;2023-04-03T12:52:04;5.90;;;5.20;;
8572;SDS011;4324;42.012;24.872;2023-04-03T12:54:32;7.70;;;6.90;;
8572;SDS011;4324;42.012;24.872;2023-04-03T12:57:09;8.23;;;7.43;;
8572;SDS011;4324;42.012;24.872;2023-04-03T12:59:37;9.40;;;8.47;;
8572;SDS011;4324;42.012;24.872;2023-04-03T13:02:09;8.13;;;6.47;;
8572;SDS011;4324;42.012;24.872;2023-04-03T13:04:45;9.23;;;8.10;;
8572;SDS011;4324;42.012;24.872;2023-04-03T13:07:24;8.83;;;7.50;;
8572;SDS011;4324;42.012;24.872;2023-04-03T13:09:57;11.50;;;9.93;;
8572;SDS011;4324;42.012;24.872;2023-04-03T13:12:25;13.23;;;11.83;;
8572;SDS011;4324;42.012;24.872;2023-04-03T13:14:54;11.27;;;8.37;;
8572;SDS011;4324;42.012;24.872;2023-04-03T13:17:23;7.33;;;6.63;;
8572;SDS011;4324;42.012;24.872;2023-04-03T13:19:50;9.87;;;8.50;;
8572;SDS011;4324;42.012;24.872;2023-04-03T13:22:25;10.13;;;9.13;;
8572;SDS011;4324;42.012;24.872;2023-04-03T13:24:55;12.53;;;9.87;;
8572;SDS011;4324;42.012;24.872;2023-04-03T13:27:25;10.43;;;9.37;;
8572;SDS011;4324;42.012;24.872;2023-04-03T13:29:54;10.97;;;9.43;;
8572;SDS011;4324;42.012;24.872;2023-04-03T13:32:26;10.73;;;9.00;;
8572;SDS011;4324;42.012;24.872;2023-04-03T13:34:55;10.80;;;8.87;;
8572;SDS011;4324;42.012;24.872;2023-04-03T13:37:23;11.97;;;10.27;;
8572;SDS011;4324;42.012;24.872;2023-04-03T13:39:57;14.57;;;13.17;;
8572;SDS011;4324;42.012;24.872;2023-04-03T13:42:27;19.83;;;15.37;;
8572;SDS011;4324;42.012;24.872;2023-04-03T13:47:52;14.00;;;11.63;;
8572;SDS011;4324;42.012;24.872;2023-04-03T13:50:21;10.30;;;9.20;;
8572;SDS011;4324;42.012;24.872;2023-04-03T13:52:53;8.77;;;7.50;;
8572;SDS011;4324;42.012;24.872;2023-04-03T13:55:22;10.07;;;8.40;;
8572;SDS011;4324;42.012;24.872;2023-04-03T13:57:52;11.90;;;9.83;;
8572;SDS011;4324;42.012;24.872;2023-04-03T14:00:26;14.37;;;12.63;;
8572;SDS011;4324;42.012;24.872;2023-04-03T14:03:12;12.57;;;10.27;;
8572;SDS011;4324;42.012;24.872;2023-04-03T14:05:41;16.03;;;13.53;;
8572;SDS011;4324;42.012;24.872;2023-04-03T14:08:09;13.50;;;11.43;;
8572;SDS011;4324;42.012;24.872;2023-04-03T14:10:36;9.87;;;8.83;;
8572;SDS011;4324;42.012;24.872;2023-04-03T14:13:04;11.20;;;9.20;;
8572;SDS011;4324;42.012;24.872;2023-04-03T14:15:32;15.20;;;10.87;;
8572;SDS011;4324;42.012;24.872;2023-04-03T14:17:59;13.10;;;11.57;;
8572;SDS011;4324;42.012;24.872;2023-04-03T14:20:26;15.27;;;10.03;;
8572;SDS011;4324;42.012;24.872;2023-04-03T14:22:53;12.60;;;11.30;;
8572;SDS011;4324;42.012;24.872;2023-04-03T14:25:22;11.93;;;10.73;;
8572;SDS011;4324;42.012;24.872;2023-04-03T14:27:51;14.30;;;11.17;;
8572;SDS011;4324;42.012;24.872;2023-04-03T14:30:20;15.50;;;12.07;;
8572;SDS011;4324;42.012;24.872;2023-04-03T14:32:49;15.50;;;13.20;;
8572;SDS011;4324;42.012;24.872;2023-04-03T14:35:17;23.23;;;16.33;;
8572;SDS011;4324;42.012;24.872;2023-04-03T14:37:46;19.53;;;14.57;;
8572;SDS011;4324;42.012;24.872;2023-04-03T14:40:14;16.60;;;14.80;;
8572;SDS011;4324;42.012;24.872;2023-04-03T14:42:44;17.10;;;14.83;;
8572;SDS011;4324;42.012;24.872;2023-04-03T14:45:12;19.03;;;15.73;;
8572;SDS011;4324;42.012;24.872;2023-04-03T14:47:41;17.33;;;15.23;;
8572;SDS011;4324;42.012;24.872;2023-04-03T14:50:12;16.43;;;14.50;;
8572;SDS011;4324;42.012;24.872;2023-04-03T14:52:41;20.57;;;17.07;;
8572;SDS011;4324;42.012;24.872;2023-04-03T14:55:08;19.63;;;16.80;;
8572;SDS011;4324;42.012;24.872;2023-04-03T14:57:36;18.70;;;15.70;;
8572;SDS011;4324;42.012;24.872;2023-04-03T15:00:07;21.67;;;18.27;;
8572;SDS011;4324;42.012;24.872;2023-04-03T15:02:38;19.97;;;17.87;;
8572;SDS011;4324;42.012;24.872;2023-04-03T15:05:07;20.23;;;17.97;;
8572;SDS011;4324;42.012;24.872;2023-04-03T15:07:36;23.37;;;20.10;;
8572;SDS011;4324;42.012;24.872;2023-04-03T15:10:14;17.50;;;14.83;;
8572;SDS011;4324;42.012;24.872;2023-04-03T15:12:43;16.93;;;15.07;;
8572;SDS011;4324;42.012;24.872;2023-04-03T15:15:19;21.77;;;17.30;;
8572;SDS011;4324;42.012;24.872;2023-04-03T15:17:49;19.90;;;17.90;;
8572;SDS011;4324;42.012;24.872;2023-04-03T15:20:24;17.53;;;15.80;;
8572;SDS011;4324;42.012;24.872;2023-04-03T15:22:53;18.77;;;14.90;;
8572;SDS011;4324;42.012;24.872;2023-04-03T15:25:21;18.50;;;14.77;;
8572;SDS011;4324;42.012;24.872;2023-04-03T15:27:48;15.50;;;12.90;;
8572;SDS011;4324;42.012;24.872;2023-04-03T15:30:16;15.83;;;13.63;;
8572;SDS011;4324;42.012;24.872;2023-04-03T15:32:46;15.23;;;12.43;;
8572;SDS011;4324;42.012;24.872;2023-04-03T15:35:13;16.57;;;12.97;;